createdAt,value
2023-03-29T00:00:20.244Z,46.73
2023-03-29T00:02:51.184Z,46.91
2023-03-29T00:05:26.888Z,47.32
2023-03-29T00:08:02.749Z,47.41
2023-03-29T00:10:34.543Z,47.24
2023-03-29T00:13:05.415Z,47.51
2023-03-29T00:15:35.852Z,46.96
2023-03-29T00:18:06.795Z,47.31
2023-03-29T00:20:37.771Z,46.74
2023-03-29T00:23:08.423Z,46.42
2023-03-29T00:25:39.100Z,46.04
2023-03-29T00:28:09.756Z,45.84
2023-03-29T00:30:42.140Z,45.54
2023-03-29T00:33:13.491Z,45.10
2023-03-29T00:35:46.040Z,44.80
2023-03-29T00:38:18.056Z,44.45
2023-03-29T00:40:48.959Z,44.35
2023-03-29T00:43:21.589Z,43.89
2023-03-29T00:45:52.496Z,43.82
2023-03-29T00:48:30.967Z,44.39
2023-03-29T00:51:08.187Z,43.92
2023-03-29T00:53:55.312Z,43.92
2023-03-29T00:56:36.167Z,43.59
2023-03-29T00:59:22.586Z,43.35
2023-03-29T01:01:55.549Z,43.25
2023-03-29T01:04:30.370Z,42.91
2023-03-29T01:07:19.597Z,42.93
2023-03-29T01:09:57.695Z,42.18
2023-03-29T01:12:33.612Z,42.48
2023-03-29T01:15:13.321Z,44.39
2023-03-29T01:17:51.203Z,44.89
2023-03-29T01:20:25.496Z,45.43
2023-03-29T01:23:22.240Z,45.76
2023-03-29T01:25:58.945Z,45.87
2023-03-29T01:28:46.796Z,46.21
2023-03-29T01:31:33.495Z,46.41
2023-03-29T01:34:14.534Z,46.50
2023-03-29T01:37:18.145Z,46.97
2023-03-29T01:39:49.380Z,46.97
2023-03-29T01:42:30.028Z,47.39
2023-03-29T01:45:32.687Z,47.37
2023-03-29T01:48:35.201Z,47.38
2023-03-29T01:51:11.449Z,47.64
2023-03-29T01:54:05.686Z,47.67
2023-03-29T01:56:41.309Z,48.28
2023-03-29T01:59:21.603Z,48.34
2023-03-29T02:01:54.717Z,48.40
2023-03-29T02:04:32.639Z,48.79
2023-03-29T02:07:06.268Z,48.16
2023-03-29T02:09:38.677Z,48.17
2023-03-29T02:12:11.191Z,47.80
2023-03-29T02:14:46.146Z,47.84
2023-03-29T02:17:28.712Z,48.16
2023-03-29T02:20:15.412Z,48.21
2023-03-29T02:22:57.938Z,47.79
2023-03-29T02:25:29.108Z,47.43
2023-03-29T02:28:00.309Z,47.49
2023-03-29T02:30:52.381Z,48.03
2023-03-29T02:33:32.625Z,47.30
2023-03-29T02:36:14.020Z,46.87
2023-03-29T02:38:44.942Z,47.03
2023-03-29T02:41:18.886Z,46.46
2023-03-29T02:43:50.116Z,46.78
2023-03-29T02:46:24.302Z,46.94
2023-03-29T02:48:56.587Z,46.61
2023-03-29T02:51:37.431Z,46.89
2023-03-29T02:54:23.062Z,46.86
2023-03-29T02:57:07.524Z,47.31
2023-03-29T02:59:39.676Z,47.03
2023-03-29T03:02:14.665Z,46.48
2023-03-29T03:04:46.400Z,46.73
2023-03-29T03:07:17.061Z,47.94
2023-03-29T03:09:48.714Z,47.75
2023-03-29T03:12:19.956Z,47.86
2023-03-29T03:14:51.518Z,47.28
2023-03-29T03:17:25.678Z,47.02
2023-03-29T03:19:56.335Z,46.75
2023-03-29T03:22:27.428Z,46.98
2023-03-29T03:24:58.780Z,46.92
2023-03-29T03:27:30.200Z,46.34
2023-03-29T03:30:01.241Z,46.02
2023-03-29T03:32:50.857Z,46.82
2023-03-29T03:35:24.753Z,46.57
2023-03-29T03:37:56.240Z,45.75
2023-03-29T03:40:28.536Z,46.14
2023-03-29T03:43:00.097Z,46.18
2023-03-29T03:45:31.085Z,46.29
2023-03-29T03:48:20.594Z,45.94
2023-03-29T03:50:55.096Z,45.98
2023-03-29T03:53:30.808Z,46.40
2023-03-29T03:56:17.542Z,45.72
2023-03-29T03:59:08.320Z,45.62
2023-03-29T04:01:48.331Z,45.71
2023-03-29T04:04:24.279Z,45.52
2023-03-29T04:07:05.837Z,45.94
2023-03-29T04:09:37.234Z,45.94
2023-03-29T04:12:28.418Z,45.14
2023-03-29T04:14:59.828Z,45.69
2023-03-29T04:17:31.784Z,44.95
2023-03-29T04:20:13.340Z,45.69
2023-03-29T04:22:44.808Z,45.48
2023-03-29T04:25:16.520Z,45.27
2023-03-29T04:27:54.167Z,44.86
2023-03-29T04:30:43.960Z,44.27
2023-03-29T04:33:19.455Z,43.01
2023-03-29T04:36:00.792Z,42.75
2023-03-29T04:38:37.057Z,42.74
2023-03-29T04:41:08.701Z,42.62
2023-03-29T04:43:58.049Z,42.85
2023-03-29T04:46:30.441Z,43.31
2023-03-29T04:49:39.977Z,42.74
2023-03-29T04:52:15.907Z,42.50
2023-03-29T04:54:48.672Z,42.82
2023-03-29T04:57:35.465Z,43.08
2023-03-29T05:00:16.304Z,42.26
2023-03-29T05:03:05.792Z,41.89
2023-03-29T05:05:42.427Z,42.54
2023-03-29T05:08:13.363Z,42.08
2023-03-29T05:11:11.770Z,42.00
2023-03-29T05:13:43.556Z,41.81
2023-03-29T05:16:14.986Z,42.06
2023-03-29T05:18:46.141Z,41.98
2023-03-29T05:21:17.236Z,41.58
2023-03-29T05:23:50.537Z,41.12
2023-03-29T05:26:48.741Z,40.69
2023-03-29T05:29:20.173Z,39.89
2023-03-29T05:31:57.544Z,40.09
2023-03-29T05:34:29.118Z,40.08
2023-03-29T05:37:02.744Z,39.77
2023-03-29T05:39:43.909Z,40.02
2023-03-29T05:42:16.651Z,39.79
2023-03-29T05:44:57.421Z,40.23
2023-03-29T05:47:29.618Z,40.33
2023-03-29T05:50:00.800Z,40.32
2023-03-29T05:52:31.900Z,40.11
2023-03-29T05:55:03.166Z,39.80
2023-03-29T05:57:38.550Z,39.67
2023-03-29T06:00:27.850Z,40.00
2023-03-29T06:03:17.978Z,40.01
2023-03-29T06:06:00.177Z,40.31
2023-03-29T06:08:32.885Z,40.40
2023-03-29T06:11:19.814Z,39.83
2023-03-29T06:14:08.690Z,39.85
2023-03-29T06:16:45.945Z,39.89
2023-03-29T06:19:18.434Z,39.50
2023-03-29T06:21:53.533Z,39.67
2023-03-29T06:24:31.086Z,39.51
2023-03-29T06:27:07.941Z,39.27
2023-03-29T06:29:38.785Z,38.82
2023-03-29T06:32:09.785Z,38.97
2023-03-29T06:34:59.532Z,38.29
2023-03-29T06:37:35.764Z,38.65
2023-03-29T06:40:28.675Z,38.53
2023-03-29T06:43:00.499Z,38.75
2023-03-29T06:45:43.726Z,39.17
2023-03-29T06:48:40.824Z,39.35
2023-03-29T06:51:12.461Z,39.46
2023-03-29T06:53:44.265Z,39.61
2023-03-29T06:56:17.020Z,40.07
2023-03-29T06:58:57.905Z,39.95
2023-03-29T07:01:48.201Z,40.45
2023-03-29T07:04:38.233Z,40.83
2023-03-29T07:07:45.047Z,41.31
2023-03-29T07:10:35.361Z,41.79
2023-03-29T07:13:24.872Z,41.34
2023-03-29T07:15:57.684Z,41.34
2023-03-29T07:18:45.254Z,41.83
2023-03-29T07:21:25.015Z,40.78
2023-03-29T07:23:56.716Z,40.27
2023-03-29T07:26:28.380Z,41.02
2023-03-29T07:29:02.376Z,40.83
2023-03-29T07:31:36.300Z,40.68
2023-03-29T07:34:30.997Z,41.25
2023-03-29T07:37:02.723Z,41.25
2023-03-29T07:39:34.758Z,41.07
2023-03-29T07:42:38.320Z,41.19
2023-03-29T07:45:12.729Z,41.30
2023-03-29T07:47:58.891Z,40.00
2023-03-29T07:50:35.943Z,40.09
2023-03-29T07:53:08.361Z,39.88
2023-03-29T07:55:39.597Z,39.34
2023-03-29T07:58:30.464Z,38.63
2023-03-29T08:01:02.012Z,38.70
2023-03-29T08:03:51.008Z,38.25
2023-03-29T08:06:23.420Z,38.29
2023-03-29T08:08:54.554Z,38.33
2023-03-29T08:11:25.767Z,38.95
2023-03-29T08:14:06.162Z,38.85
2023-03-29T08:17:09.762Z,39.22
2023-03-29T08:19:50.807Z,39.19
2023-03-29T08:22:29.131Z,39.57
2023-03-29T08:25:22.811Z,39.74
2023-03-29T08:27:56.573Z,39.62
2023-03-29T08:30:52.933Z,39.30
2023-03-29T08:33:23.703Z,39.77
2023-03-29T08:36:05.596Z,39.61
2023-03-29T08:38:39.861Z,39.87
2023-03-29T08:41:29.335Z,40.12
2023-03-29T08:44:30.444Z,39.70
2023-03-29T08:47:08.517Z,39.44
2023-03-29T08:49:52.053Z,39.59
2023-03-29T08:52:43.571Z,39.47
2023-03-29T08:55:51.835Z,38.83
2023-03-29T08:58:49.146Z,38.75
2023-03-29T09:01:25.582Z,39.28
2023-03-29T09:04:30.073Z,39.45
2023-03-29T09:07:25.339Z,39.18
2023-03-29T09:10:01.269Z,39.09
2023-03-29T09:13:15.928Z,39.56
2023-03-29T09:16:01.793Z,39.20
2023-03-29T09:19:03.971Z,39.31
2023-03-29T09:22:11.415Z,39.51
2023-03-29T09:25:08.769Z,39.54
2023-03-29T09:27:42.654Z,40.05
2023-03-29T09:30:42.845Z,40.09
2023-03-29T09:33:38.283Z,40.45
2023-03-29T09:36:45.011Z,40.46
2023-03-29T09:39:18.922Z,40.68
2023-03-29T09:42:10.562Z,40.79
2023-03-29T09:44:59.066Z,40.46
2023-03-29T09:47:49.641Z,40.66
2023-03-29T09:50:31.947Z,40.70
2023-03-29T09:53:06.974Z,40.97
2023-03-29T09:55:45.313Z,41.13
2023-03-29T09:58:32.069Z,40.71
2023-03-29T10:01:14.001Z,41.26
2023-03-29T10:03:55.907Z,41.16
2023-03-29T10:06:31.477Z,41.29
2023-03-29T10:09:05.595Z,41.04
2023-03-29T10:11:44.368Z,41.03
2023-03-29T10:14:43.564Z,40.25
2023-03-29T10:17:30.507Z,40.21
2023-03-29T10:20:04.984Z,40.28
2023-03-29T10:22:39.614Z,39.77
2023-03-29T10:25:16.352Z,39.28
2023-03-29T10:27:51.007Z,39.46
2023-03-29T10:30:25.638Z,38.95
2023-03-29T10:33:01.063Z,39.22
2023-03-29T10:35:46.637Z,38.74
2023-03-29T10:38:35.998Z,38.89
2023-03-29T10:41:11.913Z,39.29
2023-03-29T10:43:51.959Z,39.55
2023-03-29T10:46:31.440Z,39.23
2023-03-29T10:49:12.250Z,39.71
2023-03-29T10:51:49.015Z,40.17
2023-03-29T10:54:25.926Z,39.97
2023-03-29T10:57:00.690Z,39.45
2023-03-29T10:59:58.897Z,39.63
2023-03-29T11:02:54.670Z,39.92
2023-03-29T11:05:51.588Z,39.54
2023-03-29T11:08:39.434Z,39.75
2023-03-29T11:11:38.286Z,39.45
2023-03-29T11:14:23.851Z,38.60
2023-03-29T11:17:16.344Z,38.45
2023-03-29T11:20:14.269Z,38.37
2023-03-29T11:23:12.513Z,38.29
2023-03-29T11:26:15.560Z,38.20
2023-03-29T11:28:54.207Z,38.13
2023-03-29T11:31:42.641Z,37.91
2023-03-29T11:34:14.048Z,37.96
2023-03-29T11:37:03.808Z,38.54
2023-03-29T11:39:58.262Z,38.94
2023-03-29T11:42:36.079Z,39.00
2023-03-29T11:45:18.292Z,38.64
2023-03-29T11:47:54.080Z,38.36
2023-03-29T11:50:52.043Z,38.50
2023-03-29T11:53:30.469Z,38.04
2023-03-29T11:56:12.032Z,38.06
2023-03-29T11:58:49.191Z,37.93
2023-03-29T12:02:14.904Z,38.14
2023-03-29T12:05:02.241Z,37.67
2023-03-29T12:07:43.026Z,37.81
2023-03-29T12:10:39.446Z,38.18
2023-03-29T12:13:18.761Z,37.61
2023-03-29T12:16:17.057Z,37.72
2023-03-29T12:18:54.151Z,37.43
2023-03-29T12:21:31.480Z,37.53
2023-03-29T12:24:04.071Z,37.85
2023-03-29T12:26:44.190Z,37.65
2023-03-29T12:29:36.478Z,37.90
2023-03-29T12:32:36.072Z,37.70
2023-03-29T12:36:01.686Z,37.77
2023-03-29T12:39:00.547Z,37.48
2023-03-29T12:41:53.401Z,37.14
2023-03-29T12:45:01.460Z,36.95
2023-03-29T12:47:47.058Z,37.13
2023-03-29T12:50:31.144Z,37.14
2023-03-29T12:53:40.710Z,37.03
2023-03-29T12:56:23.074Z,37.16
2023-03-29T12:59:19.814Z,37.15
2023-03-29T13:02:21.983Z,36.65
2023-03-29T13:05:07.737Z,36.83
2023-03-29T13:07:51.942Z,36.72
2023-03-29T13:10:43.393Z,36.49
2023-03-29T13:13:24.983Z,36.38
2023-03-29T13:15:58.005Z,36.57
2023-03-29T13:18:49.164Z,36.57
2023-03-29T13:21:54.323Z,36.80
2023-03-29T13:24:32.364Z,36.69
2023-03-29T13:27:28.183Z,36.45
2023-03-29T13:30:12.813Z,36.68
2023-03-29T13:32:51.735Z,36.81
2023-03-29T13:35:34.101Z,36.58
2023-03-29T13:38:20.752Z,36.83
2023-03-29T13:41:04.249Z,36.63
2023-03-29T13:43:43.187Z,36.67
2023-03-29T13:46:43.652Z,37.08
2023-03-29T13:49:29.948Z,36.86
2023-03-29T13:52:17.905Z,37.12
2023-03-29T13:54:55.367Z,37.04
2023-03-29T13:57:35.762Z,37.37
2023-03-29T14:00:26.037Z,37.00
2023-03-29T14:03:03.110Z,37.39
2023-03-29T14:05:47.606Z,37.66
2023-03-29T14:08:29.226Z,37.16
2023-03-29T14:11:06.303Z,37.55
2023-03-29T14:13:38.570Z,36.72
2023-03-29T14:16:14.968Z,37.28
2023-03-29T14:18:47.309Z,37.27
2023-03-29T14:21:19.279Z,37.36
2023-03-29T14:23:57.458Z,37.33
2023-03-29T14:26:36.865Z,37.53
2023-03-29T14:29:11.643Z,37.78
2023-03-29T14:31:44.487Z,38.11
2023-03-29T14:34:17.773Z,38.02
2023-03-29T14:36:53.391Z,38.19
2023-03-29T14:39:25.414Z,38.59
2023-03-29T14:41:58.427Z,38.31
2023-03-29T14:44:32.973Z,38.59
2023-03-29T14:47:04.939Z,39.18
2023-03-29T14:49:36.895Z,39.38
2023-03-29T14:52:08.607Z,39.82
2023-03-29T14:54:51.465Z,40.48
2023-03-29T14:57:26.434Z,40.25
2023-03-29T15:00:03.174Z,40.50
2023-03-29T15:02:36.453Z,40.40
2023-03-29T15:05:08.927Z,41.12
2023-03-29T15:07:40.844Z,41.25
2023-03-29T15:10:19.675Z,41.30
2023-03-29T15:12:51.316Z,41.14
2023-03-29T15:15:22.515Z,41.35
2023-03-29T15:17:54.184Z,41.45
2023-03-29T15:20:28.973Z,41.58
2023-03-29T15:23:01.954Z,41.63
2023-03-29T15:25:39.557Z,41.94
2023-03-29T15:28:36.323Z,41.51
2023-03-29T15:31:20.205Z,41.84
2023-03-29T15:34:09.479Z,41.29
2023-03-29T15:36:43.197Z,40.87
2023-03-29T15:39:19.216Z,40.34
2023-03-29T15:41:52.627Z,40.03
2023-03-29T15:44:29.974Z,40.03
2023-03-29T15:47:01.566Z,39.89
2023-03-29T15:49:32.184Z,40.08
2023-03-29T15:52:02.972Z,40.11
2023-03-29T15:54:34.772Z,40.52
2023-03-29T15:57:08.311Z,40.72
2023-03-29T15:59:39.126Z,40.33
2023-03-29T16:02:14.806Z,40.27
2023-03-29T16:04:46.293Z,39.89
2023-03-29T16:07:19.024Z,40.13
2023-03-29T16:09:49.674Z,40.18
2023-03-29T16:12:20.923Z,39.97
2023-03-29T16:14:53.014Z,39.94
2023-03-29T16:17:23.920Z,39.87
2023-03-29T16:19:54.967Z,39.85
2023-03-29T16:22:25.879Z,39.99
2023-03-29T16:24:57.164Z,39.73
2023-03-29T16:27:29.753Z,39.95
2023-03-29T16:30:01.464Z,39.83
2023-03-29T16:32:35.691Z,39.75
2023-03-29T16:35:10.044Z,39.89
2023-03-29T16:37:41.919Z,39.66
2023-03-29T16:40:13.438Z,39.66
2023-03-29T16:42:44.420Z,39.86
2023-03-29T16:45:17.901Z,39.86
2023-03-29T16:47:54.350Z,39.69
2023-03-29T16:50:25.401Z,39.80
2023-03-29T16:52:56.119Z,39.64
2023-03-29T16:55:27.988Z,40.01
2023-03-29T16:57:58.926Z,40.26
2023-03-29T17:00:30.256Z,40.38
2023-03-29T17:03:04.256Z,40.56
2023-03-29T17:05:40.914Z,40.73
2023-03-29T17:08:11.836Z,40.66
2023-03-29T17:10:43.295Z,40.64
2023-03-29T17:13:14.677Z,40.83
2023-03-29T17:15:45.352Z,40.71
2023-03-29T17:18:16.714Z,40.79
2023-03-29T17:20:47.305Z,41.09
2023-03-29T17:23:18.824Z,40.87
2023-03-29T17:25:50.236Z,40.83
2023-03-29T17:28:20.924Z,41.01
2023-03-29T17:30:52.126Z,41.09
2023-03-29T17:33:26.910Z,41.34
2023-03-29T17:35:57.586Z,41.18
2023-03-29T17:38:30.599Z,41.67
2023-03-29T17:41:02.140Z,41.85
2023-03-29T17:43:33.632Z,41.76
2023-03-29T17:46:05.112Z,42.06
2023-03-29T17:48:35.714Z,41.90
2023-03-29T17:51:07.068Z,41.94
2023-03-29T17:53:38.386Z,41.77
2023-03-29T17:56:11.771Z,41.86
2023-03-29T17:58:42.475Z,42.02
2023-03-29T18:01:15.236Z,42.25
2023-03-29T18:03:46.152Z,41.91
2023-03-29T18:06:20.552Z,42.25
2023-03-29T18:08:54.082Z,42.01
2023-03-29T18:11:25.637Z,42.50
2023-03-29T18:13:59.067Z,42.18
2023-03-29T18:16:31.828Z,42.29
2023-03-29T18:19:02.551Z,42.32
2023-03-29T18:21:33.561Z,42.47
2023-03-29T18:24:04.529Z,42.48
2023-03-29T18:26:35.577Z,42.38
2023-03-29T18:29:18.421Z,42.49
2023-03-29T18:31:49.647Z,42.38
2023-03-29T18:34:21.216Z,42.45
2023-03-29T18:36:51.902Z,42.53
2023-03-29T18:39:25.954Z,42.57
2023-03-29T18:41:56.975Z,42.72
2023-03-29T18:44:28.382Z,42.54
2023-03-29T18:46:59.313Z,42.65
2023-03-29T18:49:31.580Z,42.75
2023-03-29T18:52:03.080Z,42.61
2023-03-29T18:54:34.266Z,42.73
2023-03-29T18:57:05.660Z,42.82
2023-03-29T18:59:39.179Z,42.88
2023-03-29T19:02:10.958Z,42.67
2023-03-29T19:04:42.236Z,42.77
2023-03-29T19:07:12.942Z,42.88
2023-03-29T19:09:43.567Z,43.23
2023-03-29T19:12:14.387Z,43.05
2023-03-29T19:14:45.162Z,43.12
2023-03-29T19:17:16.124Z,43.19
2023-03-29T19:19:47.072Z,43.67
2023-03-29T19:22:18.417Z,43.21
2023-03-29T19:24:49.381Z,43.47
2023-03-29T19:27:20.577Z,43.78
2023-03-29T19:29:51.788Z,43.60
2023-03-29T19:32:22.705Z,43.85
2023-03-29T19:34:53.616Z,43.48
2023-03-29T19:37:24.475Z,43.68
2023-03-29T19:39:56.528Z,43.80
2023-03-29T19:42:27.375Z,44.13
2023-03-29T19:44:58.618Z,44.22
2023-03-29T19:47:29.529Z,44.40
2023-03-29T19:50:01.119Z,44.29
2023-03-29T19:52:32.472Z,43.99
2023-03-29T19:55:03.474Z,44.30
2023-03-29T19:57:35.620Z,44.19
2023-03-29T20:00:09.089Z,44.32
2023-03-29T20:02:43.416Z,44.26
2023-03-29T20:05:14.921Z,44.38
2023-03-29T20:07:45.969Z,44.46
2023-03-29T20:10:17.808Z,44.17
2023-03-29T20:12:48.830Z,44.67
2023-03-29T20:15:19.983Z,44.58
2023-03-29T20:17:52.273Z,44.37
2023-03-29T20:20:25.142Z,44.76
2023-03-29T20:22:59.040Z,44.57
2023-03-29T20:25:33.143Z,44.70
2023-03-29T20:28:04.845Z,44.67
2023-03-29T20:30:38.309Z,44.61
2023-03-29T20:33:09.175Z,44.63
2023-03-29T20:35:39.705Z,44.99
2023-03-29T20:38:11.146Z,44.67
2023-03-29T20:40:45.815Z,44.97
2023-03-29T20:43:19.324Z,44.98
2023-03-29T20:45:53.984Z,44.83
2023-03-29T20:48:31.258Z,45.17
2023-03-29T20:51:04.029Z,45.20
2023-03-29T20:53:37.618Z,45.08
2023-03-29T20:56:09.003Z,45.03
2023-03-29T20:58:42.889Z,45.24
2023-03-29T21:01:15.223Z,45.01
2023-03-29T21:03:45.976Z,45.05
2023-03-29T21:06:17.295Z,44.98
2023-03-29T21:08:48.993Z,44.88
2023-03-29T21:11:20.108Z,44.40
2023-03-29T21:13:53.779Z,44.32
2023-03-29T21:16:26.008Z,44.42
2023-03-29T21:18:56.808Z,44.62
2023-03-29T21:21:28.006Z,44.15
2023-03-29T21:23:58.554Z,44.15
2023-03-29T21:26:29.834Z,44.03
2023-03-29T21:29:00.633Z,44.08
2023-03-29T21:31:34.516Z,44.06
2023-03-29T21:34:05.641Z,44.01
2023-03-29T21:36:36.741Z,44.02
2023-03-29T21:39:08.185Z,44.04
2023-03-29T21:41:38.955Z,43.83
2023-03-29T21:44:10.041Z,44.09
2023-03-29T21:46:41.430Z,43.88
2023-03-29T21:49:13.403Z,43.78
2023-03-29T21:51:45.342Z,43.83
2023-03-29T21:54:15.935Z,44.11
2023-03-29T21:56:48.696Z,44.04
2023-03-29T21:59:19.278Z,44.32
2023-03-29T22:01:49.821Z,44.44
2023-03-29T22:04:35.311Z,44.43
2023-03-29T22:07:11.521Z,44.41
2023-03-29T22:09:43.342Z,44.85
2023-03-29T22:12:14.733Z,44.86
2023-03-29T22:14:47.661Z,44.81
2023-03-29T22:17:18.297Z,44.93
2023-03-29T22:19:48.966Z,44.94
2023-03-29T22:22:20.272Z,44.80
2023-03-29T22:24:55.681Z,44.69
2023-03-29T22:27:26.512Z,44.81
2023-03-29T22:29:57.012Z,45.11
2023-03-29T22:32:28.023Z,45.19
2023-03-29T22:34:59.619Z,44.79
2023-03-29T22:37:30.669Z,45.42
2023-03-29T22:40:01.505Z,45.00
2023-03-29T22:42:33.046Z,45.18
2023-03-29T22:45:03.798Z,45.02
2023-03-29T22:47:36.361Z,45.31
2023-03-29T22:50:08.438Z,45.48
2023-03-29T22:52:39.655Z,44.90
2023-03-29T22:55:10.612Z,44.96
2023-03-29T22:57:42.562Z,44.96
2023-03-29T23:00:14.710Z,44.89
2023-03-29T23:02:45.164Z,44.53
2023-03-29T23:05:17.340Z,44.47
2023-03-29T23:07:47.964Z,44.67
2023-03-29T23:10:18.776Z,45.44
2023-03-29T23:12:52.878Z,45.65
2023-03-29T23:15:24.203Z,45.44
2023-03-29T23:17:55.483Z,46.14
2023-03-29T23:20:26.134Z,45.87
2023-03-29T23:22:57.195Z,45.95
2023-03-29T23:25:28.613Z,46.39
2023-03-29T23:28:00.927Z,46.25
2023-03-29T23:30:31.880Z,46.78
2023-03-29T23:33:03.400Z,46.45
2023-03-29T23:35:34.772Z,46.97
2023-03-29T23:38:06.712Z,46.56
2023-03-29T23:40:37.818Z,46.81
2023-03-29T23:43:09.977Z,47.11
2023-03-29T23:45:41.604Z,46.56
2023-03-29T23:48:12.783Z,46.73
2023-03-29T23:50:47.260Z,46.56
2023-03-29T23:53:18.027Z,46.55
2023-03-29T23:55:50.108Z,46.46
2023-03-29T23:58:20.544Z,46.52
